sensor_id;sensor_type;location;lat;lon;timestamp;pressure;altitude;pressure_sealevel;temperature;humidity
35952;BME280;22035;51.406;16.194;2023-01-27T00:01:02;100357.54;;;25.57;19.22
35952;BME280;22035;51.406;16.194;2023-01-27T00:03:28;100351.67;;;25.58;19.21
35952;BME280;22035;51.406;16.194;2023-01-27T00:05:54;100350.66;;;25.54;19.24
35952;BME280;22035;51.406;16.194;2023-01-27T00:08:20;100353.74;;;25.57;19.21
35952;BME280;22035;51.406;16.194;2023-01-27T00:10:46;100352.59;;;25.59;19.20
35952;BME280;22035;51.406;16.194;2023-01-27T00:13:13;100353.08;;;25.57;19.21
35952;BME280;22035;51.406;16.194;2023-01-27T00:15:39;100354.39;;;25.55;19.23
35952;BME280;22035;51.406;16.194;2023-01-27T00:18:05;100351.92;;;25.56;19.22
35952;BME280;22035;51.406;16.194;2023-01-27T00:20:31;100354.27;;;25.54;19.23
35952;BME280;22035;51.406;16.194;2023-01-27T00:22:57;100357.74;;;25.58;19.20
35952;BME280;22035;51.406;16.194;2023-01-27T00:25:23;100355.02;;;25.61;19.16
35952;BME280;22035;51.406;16.194;2023-01-27T00:27:49;100357.11;;;25.59;19.18
35952;BME280;22035;51.406;16.194;2023-01-27T00:30:15;100356.45;;;25.57;19.21
35952;BME280;22035;51.406;16.194;2023-01-27T00:32:40;100350.77;;;25.54;19.23
35952;BME280;22035;51.406;16.194;2023-01-27T00:35:07;100344.95;;;25.59;19.19
35952;BME280;22035;51.406;16.194;2023-01-27T00:37:32;100343.73;;;25.58;19.20
35952;BME280;22035;51.406;16.194;2023-01-27T00:39:58;100339.02;;;25.47;19.29
35952;BME280;22035;51.406;16.194;2023-01-27T00:42:24;100336.44;;;25.59;19.19
35952;BME280;22035;51.406;16.194;2023-01-27T00:44:49;100333.96;;;25.59;19.18
35952;BME280;22035;51.406;16.194;2023-01-27T00:47:15;100334.22;;;25.53;19.24
35952;BME280;22035;51.406;16.194;2023-01-27T00:49:41;100336.00;;;25.56;19.22
35952;BME280;22035;51.406;16.194;2023-01-27T00:52:07;100337.56;;;25.58;19.19
35952;BME280;22035;51.406;16.194;2023-01-27T00:54:32;100336.59;;;25.52;19.24
35952;BME280;22035;51.406;16.194;2023-01-27T00:56:58;100334.13;;;25.51;19.25
35952;BME280;22035;51.406;16.194;2023-01-27T00:59:24;100338.78;;;25.56;19.22
35952;BME280;22035;51.406;16.194;2023-01-27T01:01:49;100341.06;;;25.52;19.25
35952;BME280;22035;51.406;16.194;2023-01-27T01:04:15;100346.41;;;25.53;19.25
35952;BME280;22035;51.406;16.194;2023-01-27T01:06:41;100349.40;;;25.59;19.18
35952;BME280;22035;51.406;16.194;2023-01-27T01:09:06;100354.58;;;25.56;19.22
35952;BME280;22035;51.406;16.194;2023-01-27T01:11:32;100358.03;;;25.55;19.21
35952;BME280;22035;51.406;16.194;2023-01-27T01:13:58;100360.49;;;25.56;19.20
35952;BME280;22035;51.406;16.194;2023-01-27T01:16:24;100363.08;;;25.50;19.26
35952;BME280;22035;51.406;16.194;2023-01-27T01:18:50;100368.68;;;25.54;19.22
35952;BME280;22035;51.406;16.194;2023-01-27T01:21:15;100368.25;;;25.53;19.23
35952;BME280;22035;51.406;16.194;2023-01-27T01:23:43;100369.04;;;25.57;19.18
35952;BME280;22035;51.406;16.194;2023-01-27T01:26:10;100372.14;;;25.45;19.30
35952;BME280;22035;51.406;16.194;2023-01-27T01:28:36;100369.51;;;25.57;19.19
35952;BME280;22035;51.406;16.194;2023-01-27T01:31:04;100368.25;;;25.55;19.20
35952;BME280;22035;51.406;16.194;2023-01-27T01:33:30;100369.74;;;25.53;19.22
35952;BME280;22035;51.406;16.194;2023-01-27T01:35:55;100370.61;;;25.55;19.19
35952;BME280;22035;51.406;16.194;2023-01-27T01:38:21;100374.41;;;25.50;19.24
35952;BME280;22035;51.406;16.194;2023-01-27T01:40:47;100375.10;;;25.52;19.23
35952;BME280;22035;51.406;16.194;2023-01-27T01:43:14;100371.64;;;25.54;19.21
35952;BME280;22035;51.406;16.194;2023-01-27T01:45:47;100376.00;;;25.51;19.24
35952;BME280;22035;51.406;16.194;2023-01-27T01:48:17;100377.19;;;25.53;19.22
35952;BME280;22035;51.406;16.194;2023-01-27T01:50:46;100380.75;;;25.49;19.24
35952;BME280;22035;51.406;16.194;2023-01-27T01:53:13;100378.88;;;25.53;19.22
35952;BME280;22035;51.406;16.194;2023-01-27T01:55:39;100378.12;;;25.53;19.21
35952;BME280;22035;51.406;16.194;2023-01-27T01:58:07;100375.42;;;25.54;19.21
35952;BME280;22035;51.406;16.194;2023-01-27T02:00:34;100372.63;;;25.55;19.19
35952;BME280;22035;51.406;16.194;2023-01-27T02:03:00;100371.28;;;25.51;19.23
35952;BME280;22035;51.406;16.194;2023-01-27T02:05:29;100373.21;;;25.49;19.24
35952;BME280;22035;51.406;16.194;2023-01-27T02:07:59;100370.29;;;25.51;19.23
35952;BME280;22035;51.406;16.194;2023-01-27T02:10:27;100369.50;;;25.55;19.18
35952;BME280;22035;51.406;16.194;2023-01-27T02:12:53;100369.13;;;25.56;19.17
35952;BME280;22035;51.406;16.194;2023-01-27T02:15:19;100369.18;;;25.52;19.21
35952;BME280;22035;51.406;16.194;2023-01-27T02:17:45;100372.00;;;25.52;19.22
35952;BME280;22035;51.406;16.194;2023-01-27T02:20:17;100372.55;;;25.56;19.18
35952;BME280;22035;51.406;16.194;2023-01-27T02:22:51;100375.77;;;25.52;19.22
35952;BME280;22035;51.406;16.194;2023-01-27T02:25:25;100376.02;;;25.53;19.21
35952;BME280;22035;51.406;16.194;2023-01-27T02:27:53;100379.45;;;25.54;19.19
35952;BME280;22035;51.406;16.194;2023-01-27T02:30:19;100381.50;;;25.50;19.23
35952;BME280;22035;51.406;16.194;2023-01-27T02:32:45;100382.05;;;25.53;19.22
35952;BME280;22035;51.406;16.194;2023-01-27T02:35:15;100383.30;;;25.49;19.24
35952;BME280;22035;51.406;16.194;2023-01-27T02:37:42;100383.99;;;25.51;19.23
35952;BME280;22035;51.406;16.194;2023-01-27T02:40:09;100387.04;;;25.53;19.20
35952;BME280;22035;51.406;16.194;2023-01-27T02:42:36;100384.64;;;25.48;19.26
35952;BME280;22035;51.406;16.194;2023-01-27T02:45:03;100382.06;;;25.45;19.32
35952;BME280;22035;51.406;16.194;2023-01-27T02:47:28;100380.14;;;25.51;19.22
35952;BME280;22035;51.406;16.194;2023-01-27T02:49:54;100383.95;;;25.52;19.22
35952;BME280;22035;51.406;16.194;2023-01-27T02:52:21;100385.00;;;25.52;19.22
35952;BME280;22035;51.406;16.194;2023-01-27T02:54:46;100383.10;;;25.53;19.21
35952;BME280;22035;51.406;16.194;2023-01-27T02:57:12;100386.24;;;25.50;19.22
35952;BME280;22035;51.406;16.194;2023-01-27T02:59:38;100385.40;;;25.52;19.21
35952;BME280;22035;51.406;16.194;2023-01-27T03:02:04;100384.92;;;25.52;19.21
35952;BME280;22035;51.406;16.194;2023-01-27T03:04:29;100385.25;;;25.52;19.22
35952;BME280;22035;51.406;16.194;2023-01-27T03:06:55;100385.29;;;25.53;19.19
35952;BME280;22035;51.406;16.194;2023-01-27T03:09:21;100388.37;;;25.49;19.24
35952;BME280;22035;51.406;16.194;2023-01-27T03:11:47;100385.91;;;25.55;19.18
35952;BME280;22035;51.406;16.194;2023-01-27T03:14:12;100388.17;;;25.54;19.19
35952;BME280;22035;51.406;16.194;2023-01-27T03:16:38;100387.77;;;25.53;19.19
35952;BME280;22035;51.406;16.194;2023-01-27T03:19:04;100395.20;;;25.50;19.23
35952;BME280;22035;51.406;16.194;2023-01-27T03:21:29;100400.08;;;25.53;19.20
35952;BME280;22035;51.406;16.194;2023-01-27T03:23:55;100401.91;;;25.54;19.19
35952;BME280;22035;51.406;16.194;2023-01-27T03:26:21;100402.50;;;25.54;19.11
35952;BME280;22035;51.406;16.194;2023-01-27T03:28:46;100404.19;;;25.54;19.19
35952;BME280;22035;51.406;16.194;2023-01-27T03:31:12;100404.06;;;25.49;19.23
35952;BME280;22035;51.406;16.194;2023-01-27T03:33:38;100402.97;;;25.54;19.19
35952;BME280;22035;51.406;16.194;2023-01-27T03:36:04;100399.79;;;25.50;19.20
35952;BME280;22035;51.406;16.194;2023-01-27T03:38:30;100399.82;;;25.55;19.18
35952;BME280;22035;51.406;16.194;2023-01-27T03:40:55;100398.35;;;25.54;19.18
35952;BME280;22035;51.406;16.194;2023-01-27T03:43:21;100398.15;;;25.52;19.21
35952;BME280;22035;51.406;16.194;2023-01-27T03:45:48;100400.56;;;25.55;19.17
35952;BME280;22035;51.406;16.194;2023-01-27T03:48:14;100400.10;;;25.53;19.19
35952;BME280;22035;51.406;16.194;2023-01-27T03:50:40;100398.36;;;25.53;19.19
35952;BME280;22035;51.406;16.194;2023-01-27T03:53:06;100401.33;;;25.51;19.22
35952;BME280;22035;51.406;16.194;2023-01-27T03:55:33;100398.11;;;25.51;19.21
35952;BME280;22035;51.406;16.194;2023-01-27T03:57:59;100399.92;;;25.51;19.21
35952;BME280;22035;51.406;16.194;2023-01-27T04:00:25;100400.53;;;25.50;19.23
35952;BME280;22035;51.406;16.194;2023-01-27T04:02:50;100401.73;;;25.48;19.24
35952;BME280;22035;51.406;16.194;2023-01-27T04:05:16;100402.50;;;25.51;19.22
35952;BME280;22035;51.406;16.194;2023-01-27T04:07:42;100405.04;;;25.52;19.20
35952;BME280;22035;51.406;16.194;2023-01-27T04:10:09;100399.29;;;25.54;19.20
35952;BME280;22035;51.406;16.194;2023-01-27T04:12:34;100395.54;;;25.52;19.20
35952;BME280;22035;51.406;16.194;2023-01-27T04:15:00;100390.68;;;25.52;19.21
35952;BME280;22035;51.406;16.194;2023-01-27T04:17:26;100387.15;;;25.49;19.24
35952;BME280;22035;51.406;16.194;2023-01-27T04:19:51;100384.68;;;25.51;19.21
35952;BME280;22035;51.406;16.194;2023-01-27T04:22:17;100384.35;;;25.43;19.31
35952;BME280;22035;51.406;16.194;2023-01-27T04:24:43;100389.33;;;25.53;19.20
35952;BME280;22035;51.406;16.194;2023-01-27T04:27:10;100392.57;;;25.53;19.20
35952;BME280;22035;51.406;16.194;2023-01-27T04:29:38;100396.89;;;25.49;19.23
35952;BME280;22035;51.406;16.194;2023-01-27T04:32:06;100399.42;;;25.53;19.19
35952;BME280;22035;51.406;16.194;2023-01-27T04:34:31;100402.37;;;25.50;19.23
35952;BME280;22035;51.406;16.194;2023-01-27T04:36:58;100405.20;;;25.44;19.27
35952;BME280;22035;51.406;16.194;2023-01-27T04:39:24;100404.47;;;25.54;19.18
35952;BME280;22035;51.406;16.194;2023-01-27T04:41:50;100401.93;;;25.49;19.23
35952;BME280;22035;51.406;16.194;2023-01-27T04:44:17;100400.15;;;25.55;19.18
35952;BME280;22035;51.406;16.194;2023-01-27T04:46:43;100401.93;;;25.52;19.21
35952;BME280;22035;51.406;16.194;2023-01-27T04:49:09;100400.10;;;25.54;19.19
35952;BME280;22035;51.406;16.194;2023-01-27T04:51:35;100397.22;;;25.55;19.17
35952;BME280;22035;51.406;16.194;2023-01-27T04:54:01;100395.14;;;25.55;19.16
35952;BME280;22035;51.406;16.194;2023-01-27T04:56:29;100395.36;;;25.55;19.17
35952;BME280;22035;51.406;16.194;2023-01-27T04:58:57;100396.08;;;25.56;19.16
35952;BME280;22035;51.406;16.194;2023-01-27T05:01:23;100394.99;;;25.54;19.18
35952;BME280;22035;51.406;16.194;2023-01-27T05:03:49;100394.98;;;25.56;19.16
35952;BME280;22035;51.406;16.194;2023-01-27T05:06:15;100398.50;;;25.55;19.17
35952;BME280;22035;51.406;16.194;2023-01-27T05:08:41;100400.07;;;25.54;19.18
35952;BME280;22035;51.406;16.194;2023-01-27T05:11:07;100396.03;;;25.54;19.17
35952;BME280;22035;51.406;16.194;2023-01-27T05:13:33;100397.39;;;25.52;19.20
35952;BME280;22035;51.406;16.194;2023-01-27T05:16:04;100398.63;;;25.54;19.17
35952;BME280;22035;51.406;16.194;2023-01-27T05:18:30;100401.01;;;25.55;19.17
35952;BME280;22035;51.406;16.194;2023-01-27T05:20:57;100403.06;;;25.49;19.21
35952;BME280;22035;51.406;16.194;2023-01-27T05:23:23;100401.91;;;25.54;19.18
35952;BME280;22035;51.406;16.194;2023-01-27T05:25:49;100399.20;;;25.55;19.17
35952;BME280;22035;51.406;16.194;2023-01-27T05:28:14;100403.15;;;25.52;19.19
35952;BME280;22035;51.406;16.194;2023-01-27T05:30:40;100410.03;;;25.53;19.17
35952;BME280;22035;51.406;16.194;2023-01-27T05:33:06;100412.47;;;25.51;19.19
35952;BME280;22035;51.406;16.194;2023-01-27T05:35:32;100412.04;;;25.55;19.15
35952;BME280;22035;51.406;16.194;2023-01-27T05:37:57;100405.01;;;25.53;19.16
35952;BME280;22035;51.406;16.194;2023-01-27T05:40:23;100410.03;;;25.52;19.16
35952;BME280;22035;51.406;16.194;2023-01-27T05:42:50;100413.59;;;25.50;19.18
35952;BME280;22035;51.406;16.194;2023-01-27T05:45:16;100410.71;;;25.49;19.20
35952;BME280;22035;51.406;16.194;2023-01-27T05:47:41;100412.42;;;25.47;19.20
35952;BME280;22035;51.406;16.194;2023-01-27T05:50:08;100412.21;;;25.48;19.20
35952;BME280;22035;51.406;16.194;2023-01-27T05:52:34;100414.09;;;25.53;19.13
35952;BME280;22035;51.406;16.194;2023-01-27T05:54:59;100419.25;;;25.48;19.21
35952;BME280;22035;51.406;16.194;2023-01-27T05:57:25;100419.80;;;25.51;19.16
35952;BME280;22035;51.406;16.194;2023-01-27T05:59:51;100419.00;;;25.50;19.16
35952;BME280;22035;51.406;16.194;2023-01-27T06:02:16;100419.39;;;25.48;19.19
35952;BME280;22035;51.406;16.194;2023-01-27T06:04:42;100419.30;;;25.52;19.15
35952;BME280;22035;51.406;16.194;2023-01-27T06:07:08;100424.17;;;25.51;19.16
35952;BME280;22035;51.406;16.194;2023-01-27T06:09:34;100425.36;;;25.55;19.10
35952;BME280;22035;51.406;16.194;2023-01-27T06:11:59;100430.06;;;25.47;19.19
35952;BME280;22035;51.406;16.194;2023-01-27T06:14:25;100428.66;;;25.49;19.17
35952;BME280;22035;51.406;16.194;2023-01-27T06:16:51;100434.54;;;25.47;19.18
35952;BME280;22035;51.406;16.194;2023-01-27T06:19:16;100432.11;;;25.50;19.15
35952;BME280;22035;51.406;16.194;2023-01-27T06:21:42;100432.93;;;25.51;19.14
35952;BME280;22035;51.406;16.194;2023-01-27T06:24:08;100434.51;;;25.48;19.16
35952;BME280;22035;51.406;16.194;2023-01-27T06:26:34;100432.30;;;25.53;19.11
35952;BME280;22035;51.406;16.194;2023-01-27T06:28:59;100432.46;;;25.49;19.15
35952;BME280;22035;51.406;16.194;2023-01-27T06:31:25;100436.20;;;25.52;19.12
35952;BME280;22035;51.406;16.194;2023-01-27T06:33:51;100436.03;;;25.51;19.12
35952;BME280;22035;51.406;16.194;2023-01-27T06:36:19;100439.57;;;25.51;19.11
35952;BME280;22035;51.406;16.194;2023-01-27T06:38:46;100442.14;;;25.48;19.14
35952;BME280;22035;51.406;16.194;2023-01-27T06:41:12;100444.46;;;25.52;19.11
35952;BME280;22035;51.406;16.194;2023-01-27T06:43:38;100449.01;;;25.54;19.08
35952;BME280;22035;51.406;16.194;2023-01-27T06:46:04;100452.52;;;25.51;19.16
35952;BME280;22035;51.406;16.194;2023-01-27T06:48:30;100456.39;;;25.49;19.13
35952;BME280;22035;51.406;16.194;2023-01-27T06:50:57;100462.71;;;25.48;19.15
35952;BME280;22035;51.406;16.194;2023-01-27T06:53:23;100467.24;;;25.45;19.17
35952;BME280;22035;51.406;16.194;2023-01-27T06:55:55;100468.93;;;25.53;19.08
35952;BME280;22035;51.406;16.194;2023-01-27T06:58:21;100468.50;;;25.50;19.10
35952;BME280;22035;51.406;16.194;2023-01-27T07:00:47;100471.37;;;25.47;19.15
35952;BME280;22035;51.406;16.194;2023-01-27T07:03:12;100474.31;;;25.49;19.13
35952;BME280;22035;51.406;16.194;2023-01-27T07:05:40;100478.57;;;25.44;19.18
35952;BME280;22035;51.406;16.194;2023-01-27T07:08:06;100482.00;;;25.49;19.13
35952;BME280;22035;51.406;16.194;2023-01-27T07:10:32;100481.38;;;25.47;19.15
35952;BME280;22035;51.406;16.194;2023-01-27T07:13:06;100484.65;;;25.51;19.10
35952;BME280;22035;51.406;16.194;2023-01-27T07:15:32;100488.35;;;25.52;19.08
35952;BME280;22035;51.406;16.194;2023-01-27T07:17:58;100485.86;;;25.49;19.12
35952;BME280;22035;51.406;16.194;2023-01-27T07:20:23;100483.96;;;25.54;19.06
35952;BME280;22035;51.406;16.194;2023-01-27T07:22:49;100487.24;;;25.50;19.11
35952;BME280;22035;51.406;16.194;2023-01-27T07:25:15;100487.62;;;25.50;19.10
35952;BME280;22035;51.406;16.194;2023-01-27T07:27:40;100489.20;;;25.49;19.13
35952;BME280;22035;51.406;16.194;2023-01-27T07:30:07;100487.09;;;25.44;19.18
35952;BME280;22035;51.406;16.194;2023-01-27T07:32:33;100490.12;;;25.49;19.10
35952;BME280;22035;51.406;16.194;2023-01-27T07:34:59;100494.99;;;25.49;19.12
35952;BME280;22035;51.406;16.194;2023-01-27T07:37:25;100496.12;;;25.52;19.08
35952;BME280;22035;51.406;16.194;2023-01-27T07:39:50;100501.69;;;25.50;19.08
35952;BME280;22035;51.406;16.194;2023-01-27T07:42:16;100506.89;;;25.50;19.10
35952;BME280;22035;51.406;16.194;2023-01-27T07:44:42;100510.23;;;25.49;19.11
35952;BME280;22035;51.406;16.194;2023-01-27T07:47:07;100512.24;;;25.51;19.08
35952;BME280;22035;51.406;16.194;2023-01-27T07:49:33;100509.21;;;25.52;19.09
35952;BME280;22035;51.406;16.194;2023-01-27T07:51:59;100512.16;;;25.54;19.06
35952;BME280;22035;51.406;16.194;2023-01-27T07:54:24;100512.29;;;25.49;19.10
35952;BME280;22035;51.406;16.194;2023-01-27T07:56:50;100513.73;;;25.52;19.07
35952;BME280;22035;51.406;16.194;2023-01-27T07:59:16;100511.72;;;25.50;19.07
35952;BME280;22035;51.406;16.194;2023-01-27T08:01:42;100512.35;;;25.53;19.05
35952;BME280;22035;51.406;16.194;2023-01-27T08:04:08;100511.69;;;25.55;19.03
35952;BME280;22035;51.406;16.194;2023-01-27T08:06:33;100511.44;;;25.46;19.12
35952;BME280;22035;51.406;16.194;2023-01-27T08:09:01;100510.35;;;25.50;19.08
35952;BME280;22035;51.406;16.194;2023-01-27T08:11:27;100506.27;;;25.49;19.10
35952;BME280;22035;51.406;16.194;2023-01-27T08:13:53;100504.32;;;25.48;19.11
35952;BME280;22035;51.406;16.194;2023-01-27T08:16:18;100503.17;;;25.46;19.13
35952;BME280;22035;51.406;16.194;2023-01-27T08:18:44;100506.05;;;25.52;19.02
35952;BME280;22035;51.406;16.194;2023-01-27T08:21:11;100510.26;;;25.54;19.05
35952;BME280;22035;51.406;16.194;2023-01-27T08:23:37;100509.38;;;25.50;19.07
35952;BME280;22035;51.406;16.194;2023-01-27T08:26:05;100509.53;;;25.47;19.12
35952;BME280;22035;51.406;16.194;2023-01-27T08:28:33;100510.29;;;25.51;19.07
35952;BME280;22035;51.406;16.194;2023-01-27T08:31:03;100509.66;;;25.48;19.10
35952;BME280;22035;51.406;16.194;2023-01-27T08:33:29;100509.43;;;25.50;19.07
35952;BME280;22035;51.406;16.194;2023-01-27T08:35:54;100510.33;;;25.50;19.06
35952;BME280;22035;51.406;16.194;2023-01-27T08:38:20;100509.43;;;25.53;19.06
35952;BME280;22035;51.406;16.194;2023-01-27T08:40:46;100513.28;;;25.48;19.10
35952;BME280;22035;51.406;16.194;2023-01-27T08:43:13;100512.77;;;25.50;19.08
35952;BME280;22035;51.406;16.194;2023-01-27T08:45:39;100517.10;;;25.48;19.09
35952;BME280;22035;51.406;16.194;2023-01-27T08:48:04;100519.54;;;25.49;19.10
35952;BME280;22035;51.406;16.194;2023-01-27T08:50:30;100525.39;;;25.50;19.09
35952;BME280;22035;51.406;16.194;2023-01-27T08:52:57;100528.39;;;25.51;19.09
35952;BME280;22035;51.406;16.194;2023-01-27T08:55:22;100529.90;;;25.51;19.07
35952;BME280;22035;51.406;16.194;2023-01-27T08:57:48;100536.67;;;25.47;19.10
35952;BME280;22035;51.406;16.194;2023-01-27T09:00:14;100538.93;;;25.49;19.09
35952;BME280;22035;51.406;16.194;2023-01-27T09:02:40;100544.35;;;25.42;19.17
35952;BME280;22035;51.406;16.194;2023-01-27T09:05:06;100541.80;;;25.48;19.11
35952;BME280;22035;51.406;16.194;2023-01-27T09:07:32;100542.14;;;25.46;19.12
35952;BME280;22035;51.406;16.194;2023-01-27T09:09:57;100546.53;;;25.47;19.10
35952;BME280;22035;51.406;16.194;2023-01-27T09:12:23;100549.42;;;25.51;19.07
35952;BME280;22035;51.406;16.194;2023-01-27T09:14:49;100549.97;;;25.52;19.05
35952;BME280;22035;51.406;16.194;2023-01-27T09:17:14;100550.53;;;25.52;19.05
35952;BME280;22035;51.406;16.194;2023-01-27T09:19:40;100554.67;;;25.50;19.08
35952;BME280;22035;51.406;16.194;2023-01-27T09:22:06;100559.24;;;25.51;19.07
35952;BME280;22035;51.406;16.194;2023-01-27T09:24:31;100559.56;;;25.50;19.08
35952;BME280;22035;51.406;16.194;2023-01-27T09:26:57;100562.91;;;25.44;19.14
35952;BME280;22035;51.406;16.194;2023-01-27T09:29:23;100558.43;;;25.40;19.17
35952;BME280;22035;51.406;16.194;2023-01-27T09:31:48;100559.70;;;25.49;19.09
35952;BME280;22035;51.406;16.194;2023-01-27T09:34:14;100560.97;;;25.52;19.06
35952;BME280;22035;51.406;16.194;2023-01-27T09:36:42;100559.16;;;25.46;19.13
35952;BME280;22035;51.406;16.194;2023-01-27T09:39:10;100559.13;;;25.49;19.09
35952;BME280;22035;51.406;16.194;2023-01-27T09:41:49;100565.28;;;25.50;19.08
35952;BME280;22035;51.406;16.194;2023-01-27T09:44:31;100565.24;;;25.40;19.17
35952;BME280;22035;51.406;16.194;2023-01-27T09:47:12;100571.65;;;25.44;19.12
35952;BME280;22035;51.406;16.194;2023-01-27T09:49:55;100567.42;;;25.47;19.10
35952;BME280;22035;51.406;16.194;2023-01-27T09:52:41;100570.81;;;25.41;19.14
35952;BME280;22035;51.406;16.194;2023-01-27T09:55:17;100567.68;;;25.50;19.06
35952;BME280;22035;51.406;16.194;2023-01-27T09:57:51;100567.71;;;25.44;19.11
35952;BME280;22035;51.406;16.194;2023-01-27T10:00:28;100569.09;;;25.49;19.07
35952;BME280;22035;51.406;16.194;2023-01-27T10:03:12;100567.32;;;25.45;19.13
35952;BME280;22035;51.406;16.194;2023-01-27T10:05:56;100567.58;;;25.45;19.12
35952;BME280;22035;51.406;16.194;2023-01-27T10:08:39;100562.23;;;25.41;19.16
35952;BME280;22035;51.406;16.194;2023-01-27T10:11:16;100562.11;;;25.48;19.08
35952;BME280;22035;51.406;16.194;2023-01-27T10:13:54;100563.71;;;25.50;19.06
35952;BME280;22035;51.406;16.194;2023-01-27T10:16:37;100565.15;;;25.41;19.12
35952;BME280;22035;51.406;16.194;2023-01-27T10:19:21;100564.24;;;25.46;19.10
35952;BME280;22035;51.406;16.194;2023-01-27T10:22:01;100567.39;;;25.48;19.08
35952;BME280;22035;51.406;16.194;2023-01-27T10:24:38;100571.65;;;25.45;19.10
35952;BME280;22035;51.406;16.194;2023-01-27T10:27:15;100572.85;;;25.47;19.07
35952;BME280;22035;51.406;16.194;2023-01-27T10:29:44;100572.64;;;25.48;19.06
35952;BME280;22035;51.406;16.194;2023-01-27T10:32:17;100571.60;;;25.50;19.05
35952;BME280;22035;51.406;16.194;2023-01-27T10:34:50;100569.33;;;25.50;19.03
35952;BME280;22035;51.406;16.194;2023-01-27T10:37:27;100567.76;;;25.43;19.11
35952;BME280;22035;51.406;16.194;2023-01-27T10:40:02;100570.38;;;25.42;19.11
35952;BME280;22035;51.406;16.194;2023-01-27T10:42:34;100569.02;;;25.46;19.07
35952;BME280;22035;51.406;16.194;2023-01-27T10:45:14;100569.37;;;25.44;19.09
35952;BME280;22035;51.406;16.194;2023-01-27T10:47:54;100569.57;;;25.52;19.03
35952;BME280;22035;51.406;16.194;2023-01-27T10:50:27;100570.84;;;25.45;19.09
35952;BME280;22035;51.406;16.194;2023-01-27T10:52:59;100569.58;;;25.48;19.05
35952;BME280;22035;51.406;16.194;2023-01-27T10:55:31;100570.56;;;25.51;19.03
35952;BME280;22035;51.406;16.194;2023-01-27T10:58:08;100573.39;;;25.49;19.04
35952;BME280;22035;51.406;16.194;2023-01-27T11:00:38;100572.00;;;25.46;19.06
35952;BME280;22035;51.406;16.194;2023-01-27T11:03:11;100570.36;;;25.43;19.10
35952;BME280;22035;51.406;16.194;2023-01-27T11:05:40;100568.93;;;25.43;19.09
35952;BME280;22035;51.406;16.194;2023-01-27T11:08:11;100567.72;;;25.50;19.01
35952;BME280;22035;51.406;16.194;2023-01-27T11:10:42;100566.77;;;25.42;19.11
35952;BME280;22035;51.406;16.194;2023-01-27T11:13:10;100563.07;;;25.51;19.01
35952;BME280;22035;51.406;16.194;2023-01-27T11:15:38;100560.96;;;25.47;19.04
35952;BME280;22035;51.406;16.194;2023-01-27T11:18:11;100558.62;;;25.48;19.04
35952;BME280;22035;51.406;16.194;2023-01-27T11:20:40;100558.81;;;25.47;19.04
35952;BME280;22035;51.406;16.194;2023-01-27T11:23:15;100560.65;;;25.50;19.02
35952;BME280;22035;51.406;16.194;2023-01-27T11:25:45;100557.98;;;25.47;19.04
35952;BME280;22035;51.406;16.194;2023-01-27T11:28:19;100552.75;;;25.43;19.08
35952;BME280;22035;51.406;16.194;2023-01-27T11:30:53;100549.86;;;25.46;19.05
35952;BME280;22035;51.406;16.194;2023-01-27T11:33:27;100549.42;;;25.43;19.07
35952;BME280;22035;51.406;16.194;2023-01-27T11:35:54;100549.09;;;25.49;19.01
35952;BME280;22035;51.406;16.194;2023-01-27T11:38:22;100544.65;;;25.49;19.00
35952;BME280;22035;51.406;16.194;2023-01-27T11:40:49;100544.02;;;25.48;19.03
35952;BME280;22035;51.406;16.194;2023-01-27T11:43:18;100547.30;;;25.50;19.00
35952;BME280;22035;51.406;16.194;2023-01-27T11:45:44;100548.87;;;25.46;19.04
35952;BME280;22035;51.406;16.194;2023-01-27T11:48:12;100551.60;;;25.48;19.04
35952;BME280;22035;51.406;16.194;2023-01-27T11:50:40;100551.34;;;25.47;19.02
35952;BME280;22035;51.406;16.194;2023-01-27T11:53:11;100555.71;;;25.46;19.05
35952;BME280;22035;51.406;16.194;2023-01-27T11:55:41;100554.22;;;25.44;19.05
35952;BME280;22035;51.406;16.194;2023-01-27T11:58:16;100554.89;;;25.49;19.03
35952;BME280;22035;51.406;16.194;2023-01-27T12:00:48;100551.43;;;25.46;19.05
35952;BME280;22035;51.406;16.194;2023-01-27T12:03:18;100551.71;;;25.51;18.99
35952;BME280;22035;51.406;16.194;2023-01-27T12:05:47;100548.68;;;25.48;19.01
35952;BME280;22035;51.406;16.194;2023-01-27T12:08:35;100543.31;;;25.41;19.07
35952;BME280;22035;51.406;16.194;2023-01-27T12:11:16;100538.76;;;25.50;19.00
35952;BME280;22035;51.406;16.194;2023-01-27T12:13:48;100537.03;;;25.43;19.14
35952;BME280;22035;51.406;16.194;2023-01-27T12:16:14;100536.01;;;25.46;19.02
35952;BME280;22035;51.406;16.194;2023-01-27T12:18:48;100533.07;;;25.47;19.03
35952;BME280;22035;51.406;16.194;2023-01-27T12:21:16;100533.25;;;25.44;19.06
35952;BME280;22035;51.406;16.194;2023-01-27T12:23:47;100533.45;;;25.48;19.03
35952;BME280;22035;51.406;16.194;2023-01-27T12:26:14;100533.06;;;25.45;19.05
35952;BME280;22035;51.406;16.194;2023-01-27T12:28:46;100533.73;;;25.48;19.02
35952;BME280;22035;51.406;16.194;2023-01-27T12:31:17;100535.32;;;25.43;19.06
35952;BME280;22035;51.406;16.194;2023-01-27T12:33:49;100536.22;;;25.43;19.06
35952;BME280;22035;51.406;16.194;2023-01-27T12:36:21;100537.78;;;25.46;19.04
35952;BME280;22035;51.406;16.194;2023-01-27T12:38:51;100537.66;;;25.48;19.03
35952;BME280;22035;51.406;16.194;2023-01-27T12:41:22;100538.35;;;25.47;19.03
35952;BME280;22035;51.406;16.194;2023-01-27T12:43:50;100540.16;;;25.47;19.02